Hutchinson Municipal Airport
KHUT : now visible

Airfield :











YOU CAN JOIN US ON...

 
LOGIN :

Register | Disclaimer

   EN    FR    IT 

 









Legend :    VFR   Marginal VFR   IFR   Intensive IFR   Very Intensive IFR
Visi :
Ceiling :
>= 8 km
>= 3000ft
5 to 8 km
1000 to 3000 ft
1500m to 5 km
500 to 1000 ft
800 to 1500m
200 to 500 ft
< 800m
< 200 ft
Symbols :   Thunderstorms  Fog  Heavy snow  Heavy precipitations  Wind > 20 kt






- Airport Elevation : 1543 ft


KHUT - Hutchinson Municipal

CURRENT METAR :
  • 232306Z 32015KT 9SM -SN BKN010 OVC022 02/00 A2994 RMK AO2 UPB2258E02SNE2258B02 P0001 T00170000

EXPIRED METARs :
  • 232252Z 33016G25KT 9SM -SN BKN009 BKN013 OVC018 02/00 A2993 RMK AO2 UPB43E47SNE43B45E46B47 SLP140 P0003 T00170000
  • 232159Z 32013G22KT 5SM -SN BR BKN008 OVC014 02/00 A2993 RMK AO2 P0001 T00170000
  • 232052Z 30016G23KT 10SM BKN011 OVC016 03/02 A2990 RMK AO2 PK WND 30030/1954 RAB1954E20UPB20E31 SLP127 P0002 60003 T00330017 56015

TAF KHUT
Valid from the 24 at 00:00 until the 25 at 00:00 UTC


232320Z 2400/2424 33016G24KT 6SM -SN BR BKN010 OVC020
FM240200 34014KT P6SM -RASN OVC015
FM240500 34013KT P6SM BKN015
FM242300 36008KT P6SM FEW250



MET'MAP, your aeronautical weather chart ! - Copyright ORBIFLY December 2007 - Disclaimer

ORBIFLY MET'MAP TEAM :

Programming & Development : Alexandra Zaïnal
Concept & original design : Baudouin d'Aumeries
Assistance for programming : Marc-Olivier Méhu
Technical & hardware support : Manuel Goepfert

Contact : metmap@orbifly.com




SOURCES & CREDITS :

   NOAA       Earth
Advisory